Time,TemperatureF,DewpointF,PressureIn,WindDirection,WindDirectionDegrees,WindSpeedMPH,WindSpeedGustMPH,Humidity,HourlyPrecipIn,Conditions,Clouds,dailyrainin,SoftwareType,DateUTC
2013-05-02 00:01:00,63.4,50.6,30.15,ESE,102,0.0,0.0,63,0.00,,---,0.00,VWS V14.01,2013-05-02 04:01:00,
2013-05-02 00:02:00,63.4,50.6,30.15,ESE,102,0.0,0.0,63,0.00,,---,0.00,VWS V14.01,2013-05-02 04:02:00,
2013-05-02 00:04:00,63.3,50.9,30.15,ESE,102,0.0,0.0,64,0.00,,---,0.00,VWS V14.01,2013-05-02 04:04:00,
2013-05-02 00:09:00,63.3,50.9,30.15,ESE,102,2.3,2.3,64,0.00,,---,0.00,VWS V14.01,2013-05-02 04:09:00,
2013-05-02 00:14:00,63.1,51.1,30.15,East,80,1.7,2.3,65,0.00,,---,0.00,VWS V14.01,2013-05-02 04:14:00,
2013-05-02 00:18:00,63.1,50.7,30.15,East,80,2.3,2.3,64,0.00,,---,0.00,VWS V14.01,2013-05-02 04:18:00,
2013-05-02 00:23:00,62.9,51.0,30.15,East,80,2.3,2.3,65,0.00,,---,0.00,VWS V14.01,2013-05-02 04:23:00,
2013-05-02 00:28:00,62.9,51.0,30.15,SE,125,3.6,3.6,65,0.00,,---,0.00,VWS V14.01,2013-05-02 04:28:00,
2013-05-02 00:33:00,62.7,50.8,30.15,ESE,102,3.3,3.3,65,0.00,,---,0.00,VWS V14.01,2013-05-02 04:33:00,
2013-05-02 00:38:00,62.5,51.0,30.15,ESE,102,0.0,0.0,66,0.00,,---,0.00,VWS V14.01,2013-05-02 04:38:00,
2013-05-02 00:43:00,62.7,50.8,30.15,East,80,0.0,0.0,65,0.00,,---,0.00,VWS V14.01,2013-05-02 04:43:00,
2013-05-02 00:48:00,62.5,51.0,30.15,SE,125,3.0,3.0,66,0.00,,---,0.00,VWS V14.01,2013-05-02 04:48:00,
2013-05-02 00:53:00,63.1,52.0,30.15,West,260,5.6,5.6,67,0.00,,---,0.00,VWS V14.01,2013-05-02 04:53:00,
2013-05-02 00:58:00,63.8,51.8,30.15,SE,125,4.0,4.0,65,0.00,,---,0.00,VWS V14.01,2013-05-02 04:58:00,
2013-05-02 01:03:00,64.2,51.7,30.15,SE,125,4.3,4.3,64,0.00,,---,0.00,VWS V14.01,2013-05-02 05:03:00,
2013-05-02 01:08:00,64.3,51.5,30.15,SE,125,3.0,3.6,63,0.00,,---,0.00,VWS V14.01,2013-05-02 05:08:00,
2013-05-02 01:13:00,64.0,51.2,30.15,NE,35,0.0,6.0,63,0.00,,---,0.00,VWS V14.01,2013-05-02 05:13:00,
2013-05-02 01:19:00,63.8,51.4,30.15,SE,125,6.0,6.0,64,0.00,,---,0.00,VWS V14.01,2013-05-02 05:19:00,
2013-05-02 01:24:00,64.0,51.6,30.15,East,80,1.3,4.0,64,0.00,,---,0.00,VWS V14.01,2013-05-02 05:24:00,
2013-05-02 01:29:00,63.8,51.4,30.15,SE,125,6.3,6.3,64,0.00,,---,0.00,VWS V14.01,2013-05-02 05:29:00,
2013-05-02 01:34:00,64.0,51.6,30.15,SE,125,4.6,4.6,64,0.00,,---,0.00,VWS V14.01,2013-05-02 05:34:00,
2013-05-02 01:39:00,63.8,51.4,30.15,SE,125,5.0,5.0,64,0.00,,---,0.00,VWS V14.01,2013-05-02 05:39:00,
2013-05-02 01:44:00,63.6,52.1,30.15,SE,125,4.6,4.6,66,0.00,,---,0.00,VWS V14.01,2013-05-02 05:44:00,
2013-05-02 01:49:00,63.6,51.7,30.15,SE,125,6.3,6.3,65,0.00,,---,0.00,VWS V14.01,2013-05-02 05:49:00,
2013-05-02 01:54:00,63.3,51.3,30.15,ESE,102,0.0,3.3,65,0.00,,---,0.00,VWS V14.01,2013-05-02 05:54:00,
2013-05-02 01:59:00,62.9,51.0,30.15,ESE,102,4.3,4.3,65,0.00,,---,0.00,VWS V14.01,2013-05-02 05:59:00,
2013-05-02 02:04:00,62.7,50.8,30.15,ESE,102,3.6,3.6,65,0.00,,---,0.00,VWS V14.01,2013-05-02 06:04:00,
2013-05-02 02:09:00,62.4,50.9,30.15,ESE,102,1.7,1.7,66,0.00,,---,0.00,VWS V14.01,2013-05-02 06:09:00,
2013-05-02 02:14:00,62.2,51.1,30.15,SE,125,4.6,5.0,67,0.00,,---,0.00,VWS V14.01,2013-05-02 06:14:00,
2013-05-02 02:19:00,62.5,51.5,30.15,SE,125,4.3,4.3,67,0.00,,---,0.00,VWS V14.01,2013-05-02 06:19:00,
2013-05-02 02:24:00,62.9,52.2,30.15,SE,125,4.6,4.6,68,0.00,,---,0.00,VWS V14.01,2013-05-02 06:24:00,
2013-05-02 02:29:00,62.9,51.8,30.15,SE,125,3.3,3.3,67,0.00,,---,0.00,VWS V14.01,2013-05-02 06:29:00,
2013-05-02 02:34:00,62.9,52.2,30.15,SE,125,3.3,3.3,68,0.00,,---,0.00,VWS V14.01,2013-05-02 06:34:00,
2013-05-02 02:39:00,63.1,52.4,30.15,SE,125,3.3,3.3,68,0.00,,---,0.00,VWS V14.01,2013-05-02 06:39:00,
2013-05-02 02:44:00,63.1,52.4,30.15,SE,125,3.0,3.0,68,0.00,,---,0.00,VWS V14.01,2013-05-02 06:44:00,
2013-05-02 02:49:00,63.1,52.0,30.15,ESE,102,3.6,3.6,67,0.00,,---,0.00,VWS V14.01,2013-05-02 06:49:00,
2013-05-02 02:54:00,63.1,52.0,30.15,East,80,0.0,0.0,67,0.00,,---,0.00,VWS V14.01,2013-05-02 06:54:00,
2013-05-02 02:59:00,62.7,51.6,30.15,SE,125,2.0,2.0,67,0.00,,---,0.00,VWS V14.01,2013-05-02 06:59:00,
2013-05-02 03:04:00,62.5,51.8,30.15,SE,125,2.0,2.0,68,0.00,,---,0.00,VWS V14.01,2013-05-02 07:04:00,
2013-05-02 03:09:00,62.2,51.5,30.15,SE,125,2.0,2.0,68,0.00,,---,0.00,VWS V14.01,2013-05-02 07:09:00,
2013-05-02 03:14:00,62.4,52.1,30.15,East,80,0.0,3.0,69,0.00,,---,0.00,VWS V14.01,2013-05-02 07:14:00,
2013-05-02 03:20:00,62.2,51.5,30.15,SE,125,5.0,5.0,68,0.00,,---,0.00,VWS V14.01,2013-05-02 07:20:00,
2013-05-02 03:25:00,61.8,51.5,30.15,SE,125,5.0,5.0,69,0.00,,---,0.00,VWS V14.01,2013-05-02 07:25:00,
2013-05-02 03:30:00,61.6,51.4,30.15,SE,125,5.0,5.0,69,0.00,,---,0.00,VWS V14.01,2013-05-02 07:30:00,
2013-05-02 03:35:00,61.6,51.8,30.15,East,80,3.6,3.6,70,0.00,,---,0.00,VWS V14.01,2013-05-02 07:35:00,
2013-05-02 03:40:00,61.5,51.6,30.15,ESE,102,4.3,4.3,70,0.00,,---,0.00,VWS V14.01,2013-05-02 07:40:00,
2013-05-02 03:45:00,61.1,50.9,30.15,SE,125,2.0,2.0,69,0.00,,---,0.00,VWS V14.01,2013-05-02 07:45:00,
2013-05-02 03:50:00,60.9,50.7,30.15,SE,125,0.0,0.0,69,0.00,,---,0.00,VWS V14.01,2013-05-02 07:50:00,
2013-05-02 03:55:00,60.6,50.3,30.15,ESE,102,1.3,1.3,69,0.00,,---,0.00,VWS V14.01,2013-05-02 07:55:00,
2013-05-02 04:00:00,60.4,50.2,30.15,ESE,102,0.0,0.0,69,0.00,,---,0.00,VWS V14.01,2013-05-02 08:00:00,
2013-05-02 04:05:00,60.0,50.6,30.15,ESE,102,0.0,0.0,71,0.00,,---,0.00,VWS V14.01,2013-05-02 08:05:00,
2013-05-02 04:10:00,59.8,50.4,30.15,East,80,0.0,1.3,71,0.00,,---,0.00,VWS V14.01,2013-05-02 08:10:00,
2013-05-02 04:15:00,59.5,50.5,30.15,ESE,102,0.0,0.0,72,0.00,,---,0.00,VWS V14.01,2013-05-02 08:15:00,
2013-05-02 04:20:00,59.3,50.3,30.15,East,80,1.3,1.3,72,0.00,,---,0.00,VWS V14.01,2013-05-02 08:20:00,
2013-05-02 04:25:00,59.1,50.5,30.15,East,80,1.3,1.3,73,0.00,,---,0.00,VWS V14.01,2013-05-02 08:25:00,
2013-05-02 04:30:00,59.1,50.1,30.15,SE,125,0.0,0.0,72,0.00,,---,0.00,VWS V14.01,2013-05-02 08:30:00,
2013-05-02 04:35:00,58.9,49.9,30.15,East,80,2.0,2.0,72,0.00,,---,0.00,VWS V14.01,2013-05-02 08:35:00,
2013-05-02 04:40:00,58.8,49.8,30.15,East,80,0.0,2.0,72,0.00,,---,0.00,VWS V14.01,2013-05-02 08:40:00,
2013-05-02 04:45:00,58.6,50.0,30.15,East,80,0.0,0.0,73,0.00,,---,0.00,VWS V14.01,2013-05-02 08:45:00,
2013-05-02 04:50:00,58.6,50.3,30.15,East,80,5.0,5.0,74,0.00,,---,0.00,VWS V14.01,2013-05-02 08:50:00,
2013-05-02 04:55:00,58.4,49.8,30.15,ESE,102,0.0,2.3,73,0.00,,---,0.00,VWS V14.01,2013-05-02 08:55:00,
2013-05-02 05:00:00,58.2,50.0,30.15,SE,125,3.0,3.0,74,0.00,,---,0.00,VWS V14.01,2013-05-02 09:00:00,
2013-05-02 05:05:00,58.2,50.0,30.15,SE,125,4.0,4.0,74,0.00,,---,0.00,VWS V14.01,2013-05-02 09:05:00,
2013-05-02 05:10:00,58.0,49.8,30.15,SE,125,1.3,1.3,74,0.00,,---,0.00,VWS V14.01,2013-05-02 09:10:00,
2013-05-02 05:15:00,58.0,49.8,30.15,ESE,102,0.0,0.0,74,0.00,,---,0.00,VWS V14.01,2013-05-02 09:15:00,
2013-05-02 05:20:00,57.9,49.6,30.15,ESE,102,0.0,0.0,74,0.00,,---,0.00,VWS V14.01,2013-05-02 09:20:00,
2013-05-02 05:25:00,57.7,49.8,30.15,East,80,0.0,0.0,75,0.00,,---,0.00,VWS V14.01,2013-05-02 09:25:00,
2013-05-02 05:30:00,57.5,49.3,30.15,East,80,0.0,0.0,74,0.00,,---,0.00,VWS V14.01,2013-05-02 09:30:00,
2013-05-02 05:35:00,57.5,49.7,30.15,ESE,102,0.0,0.0,75,0.00,,---,0.00,VWS V14.01,2013-05-02 09:35:00,
2013-05-02 05:40:00,57.3,49.8,30.15,ENE,58,0.0,0.0,76,0.00,,---,0.00,VWS V14.01,2013-05-02 09:40:00,
2013-05-02 05:46:00,57.3,49.8,30.15,East,80,0.0,0.0,76,0.00,,---,0.00,VWS V14.01,2013-05-02 09:46:00,
2013-05-02 05:51:00,57.0,49.5,30.12,ESE,102,1.7,1.7,76,0.00,,---,0.00,VWS V14.01,2013-05-02 09:51:00,
2013-05-02 05:56:00,57.0,49.5,30.12,East,80,0.0,0.0,76,0.00,,---,0.00,VWS V14.01,2013-05-02 09:56:00,
2013-05-02 06:01:00,56.8,49.7,30.12,NE,35,0.0,0.0,77,0.00,,---,0.00,VWS V14.01,2013-05-02 10:01:00,
2013-05-02 06:06:00,56.8,49.7,30.15,East,80,0.0,0.0,77,0.00,,---,0.00,VWS V14.01,2013-05-02 10:06:00,
2013-05-02 06:11:00,56.8,49.7,30.15,NE,35,0.0,0.0,77,0.00,,---,0.00,VWS V14.01,2013-05-02 10:11:00,
2013-05-02 06:16:00,56.6,49.5,30.15,NE,35,0.0,0.0,77,0.00,,---,0.00,VWS V14.01,2013-05-02 10:16:00,
2013-05-02 06:21:00,56.4,49.7,30.15,NE,35,0.0,0.0,78,0.00,,---,0.00,VWS V14.01,2013-05-02 10:21:00,
2013-05-02 06:26:00,56.4,49.7,30.15,ENE,58,0.0,0.0,78,0.00,,---,0.00,VWS V14.01,2013-05-02 10:26:00,
2013-05-02 06:31:00,56.2,49.5,30.15,ENE,58,0.0,0.0,78,0.00,,---,0.00,VWS V14.01,2013-05-02 10:31:00,
2013-05-02 06:36:00,56.2,49.8,30.15,East,80,0.0,0.0,79,0.00,,---,0.00,VWS V14.01,2013-05-02 10:36:00,
2013-05-02 06:41:00,56.2,49.8,30.15,East,80,0.0,0.0,79,0.00,,---,0.00,VWS V14.01,2013-05-02 10:41:00,
2013-05-02 06:46:00,56.1,49.7,30.15,East,80,0.0,0.0,79,0.00,,---,0.00,VWS V14.01,2013-05-02 10:46:00,
2013-05-02 06:51:00,56.1,49.7,30.15,East,80,0.0,0.0,79,0.00,,---,0.00,VWS V14.01,2013-05-02 10:51:00,
2013-05-02 06:56:00,56.1,49.3,30.15,North,350,0.0,0.0,78,0.00,,---,0.00,VWS V14.01,2013-05-02 10:56:00,
2013-05-02 07:01:00,56.1,49.3,30.15,NE,35,0.0,0.0,78,0.00,,---,0.00,VWS V14.01,2013-05-02 11:01:00,
2013-05-02 07:06:00,56.2,49.8,30.15,North,350,0.0,0.0,79,0.00,,---,0.00,VWS V14.01,2013-05-02 11:06:00,
2013-05-02 07:11:00,56.2,49.8,30.15,NE,35,0.0,0.0,79,0.00,,---,0.00,VWS V14.01,2013-05-02 11:11:00,
2013-05-02 07:16:00,56.4,49.7,30.15,NE,35,0.0,0.0,78,0.00,,---,0.00,VWS V14.01,2013-05-02 11:16:00,
2013-05-02 07:21:00,57.1,50.3,30.15,North,350,0.0,0.0,78,0.00,,---,0.00,VWS V14.01,2013-05-02 11:21:00,
2013-05-02 07:26:00,57.5,50.0,30.15,North,350,0.0,0.0,76,0.00,,---,0.00,VWS V14.01,2013-05-02 11:26:00,
2013-05-02 07:31:00,57.5,50.7,30.15,East,80,0.0,0.0,78,0.00,,---,0.00,VWS V14.01,2013-05-02 11:31:00,
2013-05-02 07:36:00,57.7,50.9,30.15,ESE,102,0.0,0.0,78,0.00,,---,0.00,VWS V14.01,2013-05-02 11:36:00,
2013-05-02 07:41:00,57.9,51.4,30.15,ESE,102,4.0,4.0,79,0.00,,---,0.00,VWS V14.01,2013-05-02 11:41:00,
2013-05-02 07:46:00,58.2,51.8,30.15,SE,125,2.3,2.3,79,0.00,,---,0.00,VWS V14.01,2013-05-02 11:46:00,
2013-05-02 07:51:00,58.8,52.3,30.15,SE,125,4.3,4.3,79,0.00,,---,0.00,VWS V14.01,2013-05-02 11:51:00,
2013-05-02 07:56:00,59.8,53.0,30.15,SE,125,4.3,4.3,78,0.00,,---,0.00,VWS V14.01,2013-05-02 11:56:00,
2013-05-02 08:02:00,60.7,52.8,30.15,ESE,102,5.0,5.0,75,0.00,,---,0.00,VWS V14.01,2013-05-02 12:02:00,
2013-05-02 08:07:00,61.5,52.7,30.15,NW,305,5.6,5.6,73,0.00,,---,0.00,VWS V14.01,2013-05-02 12:07:00,
2013-05-02 08:12:00,62.0,53.3,30.15,SE,125,6.0,6.0,73,0.00,,---,0.00,VWS V14.01,2013-05-02 12:12:00,
2013-05-02 08:17:00,62.2,52.7,30.15,South,170,3.6,6.3,71,0.00,,---,0.00,VWS V14.01,2013-05-02 12:17:00,
2013-05-02 08:22:00,62.5,53.0,30.15,South,170,3.6,3.6,71,0.00,,---,0.00,VWS V14.01,2013-05-02 12:22:00,
2013-05-02 08:27:00,62.5,52.6,30.15,SE,125,7.9,7.9,70,0.00,,---,0.00,VWS V14.01,2013-05-02 12:27:00,
2013-05-02 08:32:00,62.5,52.2,30.15,SE,125,3.6,8.9,69,0.00,,---,0.00,VWS V14.01,2013-05-02 12:32:00,
2013-05-02 08:37:00,62.4,52.1,30.15,SE,125,5.3,5.3,69,0.00,,---,0.00,VWS V14.01,2013-05-02 12:37:00,
2013-05-02 08:42:00,62.4,52.5,30.15,SE,125,9.3,9.3,70,0.00,,---,0.00,VWS V14.01,2013-05-02 12:42:00,
2013-05-02 08:47:00,62.5,52.2,30.15,SE,125,3.0,8.3,69,0.00,,---,0.00,VWS V14.01,2013-05-02 12:47:00,
2013-05-02 08:52:00,62.7,52.4,30.18,SE,125,7.0,7.0,69,0.00,,---,0.00,VWS V14.01,2013-05-02 12:52:00,
2013-05-02 08:57:00,63.3,52.9,30.18,SE,125,5.0,8.9,69,0.00,,---,0.00,VWS V14.01,2013-05-02 12:57:00,
2013-05-02 09:02:00,63.8,53.0,30.18,South,170,3.0,3.0,68,0.00,,---,0.00,VWS V14.01,2013-05-02 13:02:00,
2013-05-02 09:07:00,64.2,53.4,30.18,SE,125,6.3,6.3,68,0.00,,---,0.00,VWS V14.01,2013-05-02 13:07:00,
2013-05-02 09:12:00,64.5,53.3,30.18,SW,215,5.3,5.3,67,0.00,,---,0.00,VWS V14.01,2013-05-02 13:12:00,
2013-05-02 09:17:00,65.1,53.8,30.18,South,170,0.0,3.6,67,0.00,,---,0.00,VWS V14.01,2013-05-02 13:17:00,
2013-05-02 09:22:00,65.6,54.0,30.18,ESE,102,0.0,7.9,66,0.00,,---,0.00,VWS V14.01,2013-05-02 13:22:00,
2013-05-02 09:27:00,65.8,53.7,30.18,South,170,3.6,6.3,65,0.00,,---,0.00,VWS V14.01,2013-05-02 13:27:00,
2013-05-02 09:32:00,66.3,53.8,30.18,South,170,4.0,4.6,64,0.00,,---,0.00,VWS V14.01,2013-05-02 13:32:00,
2013-05-02 09:37:00,67.0,54.5,30.18,SE,125,3.3,8.6,64,0.00,,---,0.00,VWS V14.01,2013-05-02 13:37:00,
2013-05-02 09:43:00,67.4,53.9,30.18,ESE,102,8.9,8.9,62,0.00,,---,0.00,VWS V14.01,2013-05-02 13:43:00,
2013-05-02 09:48:00,67.8,53.8,30.18,South,170,4.6,6.0,61,0.00,,---,0.00,VWS V14.01,2013-05-02 13:48:00,
2013-05-02 09:53:00,68.5,54.1,30.18,ESE,102,4.3,4.3,60,0.00,,---,0.00,VWS V14.01,2013-05-02 13:53:00,
2013-05-02 09:58:00,69.0,54.6,30.18,ESE,102,0.0,8.9,60,0.00,,---,0.00,VWS V14.01,2013-05-02 13:58:00,
2013-05-02 10:03:00,69.2,53.8,30.18,ESE,102,8.6,11.6,58,0.00,,---,0.00,VWS V14.01,2013-05-02 14:03:00,
2013-05-02 10:08:00,69.4,54.0,30.18,SE,125,8.3,8.3,58,0.00,,---,0.00,VWS V14.01,2013-05-02 14:08:00,
2013-05-02 10:13:00,70.1,54.7,30.15,ESE,102,9.3,9.3,58,0.00,,---,0.00,VWS V14.01,2013-05-02 14:13:00,
2013-05-02 10:18:00,70.5,54.5,30.15,SE,125,9.3,9.3,57,0.00,,---,0.00,VWS V14.01,2013-05-02 14:18:00,
2013-05-02 10:23:00,70.8,55.3,30.15,East,80,5.3,5.3,58,0.00,,---,0.00,VWS V14.01,2013-05-02 14:23:00,
2013-05-02 10:28:00,71.0,55.0,30.15,SW,215,5.6,8.6,57,0.00,,---,0.00,VWS V14.01,2013-05-02 14:28:00,
2013-05-02 10:33:00,71.4,54.4,30.15,ESE,102,5.3,9.3,55,0.00,,---,0.00,VWS V14.01,2013-05-02 14:33:00,
2013-05-02 10:38:00,72.1,54.5,30.18,East,80,6.3,6.3,54,0.00,,---,0.00,VWS V14.01,2013-05-02 14:38:00,
2013-05-02 10:43:00,72.3,54.7,30.18,SE,125,5.0,7.9,54,0.00,,---,0.00,VWS V14.01,2013-05-02 14:43:00,
2013-05-02 10:48:00,72.6,56.0,30.18,SE,125,2.0,2.0,56,0.00,,---,0.00,VWS V14.01,2013-05-02 14:48:00,
2013-05-02 10:53:00,73.0,54.3,30.15,SE,125,5.3,5.3,52,0.00,,---,0.00,VWS V14.01,2013-05-02 14:53:00,
2013-05-02 10:58:00,73.3,54.7,30.15,North,350,0.0,4.3,52,0.00,,---,0.00,VWS V14.01,2013-05-02 14:58:00,
2013-05-02 11:03:00,74.2,56.0,30.15,SE,125,9.3,9.3,53,0.00,,---,0.00,VWS V14.01,2013-05-02 15:03:00,
2013-05-02 11:08:00,74.1,55.3,30.18,SW,215,4.3,5.3,52,0.00,,---,0.00,VWS V14.01,2013-05-02 15:08:00,
2013-05-02 11:13:00,74.6,54.8,30.18,SW,215,5.6,6.6,50,0.00,,---,0.00,VWS V14.01,2013-05-02 15:13:00,
2013-05-02 11:18:00,75.1,55.2,30.15,SW,215,4.0,4.0,50,0.00,,---,0.00,VWS V14.01,2013-05-02 15:18:00,
2013-05-02 11:23:00,75.3,54.9,30.15,ESE,102,0.0,7.3,49,0.00,,---,0.00,VWS V14.01,2013-05-02 15:23:00,
2013-05-02 11:28:00,75.5,55.0,30.15,West,260,3.6,7.0,49,0.00,,---,0.00,VWS V14.01,2013-05-02 15:28:00,
2013-05-02 11:33:00,76.4,54.7,30.15,West,260,6.0,8.3,47,0.00,,---,0.00,VWS V14.01,2013-05-02 15:33:00,
2013-05-02 11:39:00,76.8,54.4,30.15,SW,215,2.3,5.3,46,0.00,,---,0.00,VWS V14.01,2013-05-02 15:39:00,
2013-05-02 11:44:00,76.9,55.2,30.15,NW,305,8.3,8.3,47,0.00,,---,0.00,VWS V14.01,2013-05-02 15:44:00,
2013-05-02 11:49:00,77.7,55.3,30.15,SW,215,8.3,8.3,46,0.00,,---,0.00,VWS V14.01,2013-05-02 15:49:00,
2013-05-02 11:54:00,77.5,54.5,30.15,SE,125,4.6,4.6,45,0.00,,---,0.00,VWS V14.01,2013-05-02 15:54:00,
2013-05-02 11:59:00,78.4,55.3,30.15,SW,215,4.3,4.3,45,0.00,,---,0.00,VWS V14.01,2013-05-02 15:59:00,
2013-05-02 12:04:00,78.4,54.7,30.15,South,170,1.7,3.0,44,0.00,,---,0.00,VWS V14.01,2013-05-02 16:04:00,
2013-05-02 12:09:00,78.4,53.4,30.15,NW,305,4.0,9.3,42,0.00,,---,0.00,VWS V14.01,2013-05-02 16:09:00,
2013-05-02 12:14:00,79.1,54.7,30.15,SW,215,4.6,4.6,43,0.00,,---,0.00,VWS V14.01,2013-05-02 16:14:00,
2013-05-02 12:19:00,79.6,55.8,30.15,SE,125,0.0,0.0,44,0.00,,---,0.00,VWS V14.01,2013-05-02 16:19:00,
2013-05-02 12:24:00,80.5,56.0,30.15,SE,125,3.6,7.9,43,0.00,,---,0.00,VWS V14.01,2013-05-02 16:24:00,
2013-05-02 12:29:00,80.5,55.4,30.15,SE,125,6.0,11.6,42,0.00,,---,0.00,VWS V14.01,2013-05-02 16:29:00,
2013-05-02 12:34:00,80.5,55.4,30.15,West,260,3.3,6.0,42,0.00,,---,0.00,VWS V14.01,2013-05-02 16:34:00,
2013-05-02 12:39:00,81.1,55.8,30.15,SE,125,10.6,10.6,42,0.00,,---,0.00,VWS V14.01,2013-05-02 16:39:00,
2013-05-02 12:44:00,81.6,56.3,30.15,West,260,4.6,4.6,42,0.00,,---,0.00,VWS V14.01,2013-05-02 16:44:00,
2013-05-02 12:49:00,82.0,56.0,30.15,East,80,3.3,5.6,41,0.00,,---,0.00,VWS V14.01,2013-05-02 16:49:00,
2013-05-02 12:54:00,81.6,56.3,30.15,NE,35,2.3,2.3,42,0.00,,---,0.00,VWS V14.01,2013-05-02 16:54:00,
2013-05-02 12:59:00,81.8,55.8,30.15,NE,35,8.9,8.9,41,0.00,,---,0.00,VWS V14.01,2013-05-02 16:59:00,
2013-05-02 13:04:00,81.6,55.0,30.15,East,80,4.3,4.3,40,0.00,,---,0.00,VWS V14.01,2013-05-02 17:04:00,
2013-05-02 13:09:00,82.9,56.8,30.15,SE,125,8.3,8.3,41,0.00,,---,0.00,VWS V14.01,2013-05-02 17:09:00,
2013-05-02 13:14:00,82.5,56.5,30.15,SE,125,7.9,7.9,41,0.00,,---,0.00,VWS V14.01,2013-05-02 17:14:00,
2013-05-02 13:19:00,83.2,56.4,30.12,ESE,102,7.9,7.9,40,0.00,,---,0.00,VWS V14.01,2013-05-02 17:19:00,
2013-05-02 13:24:00,83.2,56.4,30.12,East,80,1.7,1.7,40,0.00,,---,0.00,VWS V14.01,2013-05-02 17:24:00,
2013-05-02 13:29:00,81.8,55.1,30.12,SE,125,2.0,2.0,40,0.00,,---,0.00,VWS V14.01,2013-05-02 17:29:00,
2013-05-02 13:34:00,80.9,53.7,30.12,SE,125,15.9,15.9,39,0.00,,---,0.00,VWS V14.01,2013-05-02 17:34:00,
2013-05-02 13:40:00,80.2,53.7,30.12,SE,125,2.0,2.0,40,0.00,,---,0.00,VWS V14.01,2013-05-02 17:40:00,
2013-05-02 13:45:00,79.5,53.7,30.12,SE,125,5.0,5.0,41,0.00,,---,0.00,VWS V14.01,2013-05-02 17:45:00,
2013-05-02 13:50:00,79.8,54.0,30.12,SE,125,6.0,6.0,41,0.00,,---,0.00,VWS V14.01,2013-05-02 17:50:00,
2013-05-02 13:55:00,80.2,53.7,30.12,East,80,3.0,3.0,40,0.00,,---,0.00,VWS V14.01,2013-05-02 17:55:00,
2013-05-02 14:00:00,79.5,53.7,30.12,North,350,4.6,7.0,41,0.00,,---,0.42,VWS V14.01,2013-05-02 18:00:00,
2013-05-02 14:05:00,79.1,53.4,30.12,North,350,4.6,4.6,41,0.00,,---,0.00,VWS V14.01,2013-05-02 18:05:00,
2013-05-02 14:10:00,79.5,54.4,30.12,SE,125,0.0,0.0,42,0.00,,---,0.00,VWS V14.01,2013-05-02 18:10:00,
2013-05-02 14:15:00,80.4,53.9,30.12,SW,215,7.0,11.3,40,0.00,,---,0.00,VWS V14.01,2013-05-02 18:15:00,
2013-05-02 14:20:00,80.5,54.0,30.12,East,80,11.3,11.3,40,0.00,,---,0.00,VWS V14.01,2013-05-02 18:20:00,
2013-05-02 14:25:00,79.6,53.2,30.12,SE,125,5.3,5.3,40,0.00,,---,0.00,VWS V14.01,2013-05-02 18:25:00,
2013-05-02 14:30:00,78.7,52.4,30.12,SE,125,3.6,3.6,40,0.00,,---,0.00,VWS V14.01,2013-05-02 18:30:00,
2013-05-02 14:35:00,78.2,51.9,30.12,SE,125,4.3,4.6,40,0.00,,---,0.00,VWS V14.01,2013-05-02 18:35:00,
2013-05-02 14:40:00,79.5,53.0,30.12,SE,125,11.9,11.9,40,0.00,,---,0.00,VWS V14.01,2013-05-02 18:40:00,
2013-05-02 14:45:00,78.7,52.4,30.12,SE,125,11.9,11.9,40,0.00,,---,0.00,VWS V14.01,2013-05-02 18:45:00,
2013-05-02 14:50:00,79.6,53.2,30.12,SE,125,5.0,6.3,40,0.00,,---,0.00,VWS V14.01,2013-05-02 18:50:00,
2013-05-02 14:55:00,80.5,54.0,30.12,West,260,0.0,5.3,40,0.00,,---,0.00,VWS V14.01,2013-05-02 18:55:00,
2013-05-02 15:00:00,80.5,53.3,30.12,West,260,0.0,0.0,39,0.00,,---,0.00,VWS V14.01,2013-05-02 19:00:00,
2013-05-02 15:05:00,80.2,53.7,30.09,SW,215,4.0,4.0,40,0.00,,---,0.00,VWS V14.01,2013-05-02 19:05:00,
2013-05-02 15:10:00,80.0,52.8,30.09,SW,215,7.3,7.3,39,0.00,,---,0.00,VWS V14.01,2013-05-02 19:10:00,
2013-05-02 15:15:00,79.1,52.7,30.09,SW,215,7.3,7.3,40,0.00,,---,0.00,VWS V14.01,2013-05-02 19:15:00,
2013-05-02 15:20:00,78.7,52.4,30.09,SE,125,4.6,5.0,40,0.00,,---,0.00,VWS V14.01,2013-05-02 19:20:00,
2013-05-02 15:25:00,78.4,52.1,30.09,SE,125,4.6,4.6,40,0.00,,---,0.00,VWS V14.01,2013-05-02 19:25:00,
2013-05-02 15:30:00,78.4,52.1,30.09,SE,125,2.0,2.0,40,0.00,,---,0.00,VWS V14.01,2013-05-02 19:30:00,
2013-05-02 15:35:00,78.9,52.6,30.09,SE,125,7.3,7.3,40,0.00,,---,0.00,VWS V14.01,2013-05-02 19:35:00,
2013-05-02 15:41:00,81.3,54.7,30.09,SE,125,8.9,8.9,40,0.00,,---,0.00,VWS V14.01,2013-05-02 19:41:00,
2013-05-02 15:46:00,81.4,54.1,30.09,SE,125,5.0,8.9,39,0.00,,---,0.00,VWS V14.01,2013-05-02 19:46:00,
2013-05-02 15:51:00,81.3,53.3,30.09,SE,125,3.0,3.0,38,0.00,,---,0.00,VWS V14.01,2013-05-02 19:51:00,
2013-05-02 15:56:00,81.1,53.8,30.09,SE,125,8.3,8.3,39,0.00,,---,0.00,VWS V14.01,2013-05-02 19:56:00,
2013-05-02 16:01:00,80.9,53.7,30.09,SE,125,7.3,7.3,39,0.00,,---,0.00,VWS V14.01,2013-05-02 20:01:00,
2013-05-02 16:06:00,80.9,53.7,30.09,SE,125,7.3,7.3,39,0.00,,---,0.00,VWS V14.01,2013-05-02 20:06:00,
2013-05-02 16:11:00,79.3,52.2,30.09,SE,125,7.3,7.3,39,0.00,,---,0.00,VWS V14.01,2013-05-02 20:11:00,
2013-05-02 16:16:00,78.6,50.9,30.09,SE,125,7.3,7.3,38,0.00,,---,0.00,VWS V14.01,2013-05-02 20:16:00,
2013-05-02 16:21:00,78.2,51.2,30.09,SE,125,7.3,7.3,39,0.00,,---,0.00,VWS V14.01,2013-05-02 20:21:00,
2013-05-02 16:26:00,78.4,51.4,30.09,East,80,7.0,7.3,39,0.00,,---,0.00,VWS V14.01,2013-05-02 20:26:00,
2013-05-02 16:31:00,78.0,51.8,30.09,East,80,7.0,7.0,40,0.00,,---,0.00,VWS V14.01,2013-05-02 20:31:00,
2013-05-02 16:36:00,78.2,51.9,30.09,SE,125,6.3,6.3,40,0.00,,---,0.00,VWS V14.01,2013-05-02 20:36:00,
2013-05-02 16:41:00,77.7,50.8,30.09,SE,125,6.3,6.3,39,0.00,,---,0.00,VWS V14.01,2013-05-02 20:41:00,
2013-05-02 16:46:00,77.5,51.3,30.09,SE,125,6.3,6.3,40,0.00,,---,0.00,VWS V14.01,2013-05-02 20:46:00,
2013-05-02 16:51:00,77.5,50.6,30.09,SE,125,1.7,6.3,39,0.00,,---,0.00,VWS V14.01,2013-05-02 20:51:00,
2013-05-02 16:56:00,77.3,49.7,30.09,SE,125,1.7,1.7,38,0.00,,---,0.00,VWS V14.01,2013-05-02 20:56:00,
2013-05-02 17:01:00,77.7,50.8,30.09,SE,125,1.7,1.7,39,0.00,,---,0.00,VWS V14.01,2013-05-02 21:01:00,
2013-05-02 17:06:00,77.3,51.1,30.09,SE,125,1.7,1.7,40,0.00,,---,0.00,VWS V14.01,2013-05-02 21:06:00,
2013-05-02 17:11:00,77.3,51.1,30.09,West,260,4.3,4.3,40,0.00,,---,0.00,VWS V14.01,2013-05-02 21:11:00,
2013-05-02 17:16:00,77.1,50.3,30.09,SW,215,5.6,5.6,39,0.00,,---,0.00,VWS V14.01,2013-05-02 21:16:00,
2013-05-02 17:21:00,77.3,51.1,30.09,SW,215,5.6,5.6,40,0.00,,---,0.00,VWS V14.01,2013-05-02 21:21:00,
2013-05-02 17:26:00,77.3,50.4,30.09,SW,215,5.6,5.6,39,0.00,,---,0.00,VWS V14.01,2013-05-02 21:26:00,
2013-05-02 17:32:00,77.3,50.4,30.09,SW,215,5.6,5.6,39,0.00,,---,0.00,VWS V14.01,2013-05-02 21:32:00,
2013-05-02 17:37:00,77.3,50.4,30.06,SW,215,5.6,5.6,39,0.00,,---,0.00,VWS V14.01,2013-05-02 21:37:00,
2013-05-02 17:42:00,76.9,50.8,30.06,SW,215,5.6,5.6,40,0.00,,---,0.00,VWS V14.01,2013-05-02 21:42:00,
2013-05-02 17:47:00,76.8,50.6,30.06,SW,215,5.6,5.6,40,0.00,,---,0.00,VWS V14.01,2013-05-02 21:47:00,
2013-05-02 17:52:00,76.9,50.8,30.06,SW,215,5.6,5.6,40,0.00,,---,0.00,VWS V14.01,2013-05-02 21:52:00,
2013-05-02 17:57:00,76.9,50.8,30.06,SW,215,5.6,5.6,40,0.00,,---,0.00,VWS V14.01,2013-05-02 21:57:00,
2013-05-02 18:02:00,76.8,50.6,30.06,SW,215,5.6,5.6,40,0.00,,---,0.00,VWS V14.01,2013-05-02 22:02:00,
2013-05-02 18:07:00,76.9,50.8,30.06,SW,215,5.6,5.6,40,0.00,,---,0.00,VWS V14.01,2013-05-02 22:07:00,
2013-05-02 18:12:00,76.6,50.5,30.06,SW,215,5.6,5.6,40,0.00,,---,0.00,VWS V14.01,2013-05-02 22:12:00,
2013-05-02 18:17:00,76.6,50.5,30.06,East,80,11.9,11.9,40,0.00,,---,0.00,VWS V14.01,2013-05-02 22:17:00,
2013-05-02 18:22:00,76.2,49.5,30.06,East,80,11.9,11.9,39,0.00,,---,0.00,VWS V14.01,2013-05-02 22:22:00,
2013-05-02 18:27:00,75.9,48.5,30.06,ESE,102,10.9,10.9,38,0.00,,---,0.00,VWS V14.01,2013-05-02 22:27:00,
2013-05-02 18:32:00,75.7,49.0,30.06,ESE,102,10.9,10.9,39,0.00,,---,0.00,VWS V14.01,2013-05-02 22:32:00,
2013-05-02 18:37:00,75.5,48.8,30.06,SE,125,7.3,7.3,39,0.00,,---,0.00,VWS V14.01,2013-05-02 22:37:00,
2013-05-02 18:42:00,75.3,48.0,30.06,SE,125,7.3,7.3,38,0.00,,---,0.00,VWS V14.01,2013-05-02 22:42:00,
2013-05-02 18:47:00,75.1,48.5,30.06,SE,125,7.3,7.3,39,0.00,,---,0.00,VWS V14.01,2013-05-02 22:47:00,
2013-05-02 18:52:00,75.0,48.3,30.06,SE,125,6.0,6.0,39,0.00,,---,0.00,VWS V14.01,2013-05-02 22:52:00,
2013-05-02 18:57:00,75.0,47.7,30.06,SE,125,6.0,6.0,38,0.00,,---,0.00,VWS V14.01,2013-05-02 22:57:00,
2013-05-02 19:02:00,75.0,48.3,30.06,SE,125,6.0,6.0,39,0.00,,---,0.00,VWS V14.01,2013-05-02 23:02:00,
2013-05-02 19:07:00,74.8,47.5,30.06,SE,125,7.3,7.3,38,0.00,,---,0.00,VWS V14.01,2013-05-02 23:07:00,
2013-05-02 19:12:00,75.0,47.7,30.06,ESE,102,5.3,5.3,38,0.00,,---,0.00,VWS V14.01,2013-05-02 23:12:00,
2013-05-02 19:17:00,75.0,47.7,30.06,SE,125,8.9,8.9,38,0.00,,---,0.00,VWS V14.01,2013-05-02 23:17:00,
2013-05-02 19:22:00,75.0,47.7,30.06,SE,125,17.9,17.9,38,0.00,,---,0.00,VWS V14.01,2013-05-02 23:22:00,
2013-05-02 19:27:00,75.0,47.7,30.06,ESE,102,11.6,11.6,38,0.00,,---,0.00,VWS V14.01,2013-05-02 23:27:00,
2013-05-02 19:32:00,74.8,47.5,30.06,SE,125,12.6,12.6,38,0.00,,---,0.00,VWS V14.01,2013-05-02 23:32:00,
2013-05-02 19:37:00,74.4,47.2,30.06,SE,125,3.3,15.6,38,0.00,,---,0.00,VWS V14.01,2013-05-02 23:37:00,
2013-05-02 19:42:00,74.4,47.2,30.06,SE,125,7.9,14.9,38,0.00,,---,0.00,VWS V14.01,2013-05-02 23:42:00,
2013-05-02 19:47:00,74.4,47.2,30.06,ESE,102,13.9,13.9,38,0.00,,---,0.00,VWS V14.01,2013-05-02 23:47:00,
2013-05-02 19:53:00,74.1,46.9,30.06,ESE,102,8.9,8.9,38,0.00,,---,0.00,VWS V14.01,2013-05-02 23:53:00,
2013-05-02 19:58:00,74.1,46.9,30.06,ESE,102,8.9,8.9,38,0.00,,---,0.00,VWS V14.01,2013-05-02 23:58:00,
2013-05-02 20:03:00,73.7,47.2,30.06,ESE,102,8.9,8.9,39,0.00,,---,0.00,VWS V14.01,2013-05-03 00:03:00,
2013-05-02 20:08:00,73.5,47.1,30.06,SW,215,3.6,8.9,39,0.00,,---,0.00,VWS V14.01,2013-05-03 00:08:00,
2013-05-02 20:13:00,73.2,46.8,30.06,SW,215,3.6,3.6,39,0.00,,---,0.00,VWS V14.01,2013-05-03 00:13:00,
2013-05-02 20:18:00,73.2,46.8,30.06,SW,215,3.6,3.6,39,0.00,,---,0.00,VWS V14.01,2013-05-03 00:18:00,
2013-05-02 20:23:00,72.8,46.4,30.06,SW,215,6.3,10.9,39,0.00,,---,0.00,VWS V14.01,2013-05-03 00:23:00,
2013-05-02 20:28:00,72.6,46.9,30.06,SE,125,6.3,12.9,40,0.00,,---,0.00,VWS V14.01,2013-05-03 00:28:00,
2013-05-02 20:33:00,72.4,46.8,30.06,SE,125,6.3,6.3,40,0.00,,---,0.00,VWS V14.01,2013-05-03 00:33:00,
2013-05-02 20:38:00,72.1,46.5,30.06,SE,125,6.0,6.0,40,0.00,,---,0.00,VWS V14.01,2013-05-03 00:38:00,
2013-05-02 20:43:00,71.9,46.3,30.06,South,170,6.6,6.6,40,0.00,,---,0.00,VWS V14.01,2013-05-03 00:43:00,
2013-05-02 20:48:00,71.5,46.0,30.06,South,170,3.0,3.0,40,0.00,,---,0.00,VWS V14.01,2013-05-03 00:48:00,
2013-05-02 20:53:00,71.4,46.5,30.06,SE,125,5.0,9.9,41,0.00,,---,0.00,VWS V14.01,2013-05-03 00:53:00,
2013-05-02 20:58:00,71.0,46.1,30.06,NW,305,3.0,3.0,41,0.00,,---,0.00,VWS V14.01,2013-05-03 00:58:00,
2013-05-02 21:03:00,69.4,45.3,30.06,South,170,0.0,5.6,42,0.00,,---,0.00,VWS V14.01,2013-05-03 01:03:00,
2013-05-02 21:08:00,68.7,45.3,30.09,North,350,0.0,0.0,43,0.00,,---,0.00,VWS V14.01,2013-05-03 01:08:00,
2013-05-02 21:13:00,67.9,44.6,30.09,WNW,282,0.0,0.0,43,0.00,,---,0.00,VWS V14.01,2013-05-03 01:13:00,
2013-05-02 21:18:00,67.2,44.6,30.09,NE,35,1.3,1.3,44,0.00,,---,0.00,VWS V14.01,2013-05-03 01:18:00,
2013-05-02 21:23:00,66.9,44.3,30.09,North,350,0.0,0.0,44,0.00,,---,0.00,VWS V14.01,2013-05-03 01:23:00,
2013-05-02 21:28:00,66.3,44.4,30.09,WNW,282,0.0,0.0,45,0.00,,---,0.00,VWS V14.01,2013-05-03 01:28:00,
2013-05-02 21:33:00,66.0,44.0,30.09,West,260,0.0,0.0,45,0.00,,---,0.00,VWS V14.01,2013-05-03 01:33:00,
2013-05-02 21:38:00,65.4,44.7,30.09,NW,305,0.0,0.0,47,0.00,,---,0.00,VWS V14.01,2013-05-03 01:38:00,
2013-05-02 21:43:00,65.1,44.4,30.09,WNW,282,0.0,0.0,47,0.00,,---,0.00,VWS V14.01,2013-05-03 01:43:00,
2013-05-02 21:48:00,64.7,44.6,30.09,West,260,0.0,0.0,48,0.00,,---,0.00,VWS V14.01,2013-05-03 01:48:00,
2013-05-02 21:53:00,64.2,44.6,30.09,SW,215,0.0,0.0,49,0.00,,---,0.00,VWS V14.01,2013-05-03 01:53:00,
2013-05-02 21:58:00,64.2,44.6,30.09,NW,305,0.0,0.0,49,0.00,,---,0.00,VWS V14.01,2013-05-03 01:58:00,
2013-05-02 22:03:00,63.6,45.2,30.09,West,260,0.0,0.0,51,0.00,,---,0.00,VWS V14.01,2013-05-03 02:03:00,
2013-05-02 22:08:00,63.3,45.4,30.09,WNW,282,0.0,0.0,52,0.00,,---,0.00,VWS V14.01,2013-05-03 02:08:00,
2013-05-02 22:14:00,63.1,44.7,30.09,West,260,0.0,0.0,51,0.00,,---,0.00,VWS V14.01,2013-05-03 02:14:00,
2013-05-02 22:19:00,62.7,44.9,30.09,West,260,0.0,0.0,52,0.00,,---,0.00,VWS V14.01,2013-05-03 02:19:00,
2013-05-02 22:24:00,62.5,45.7,30.09,West,260,0.0,0.0,54,0.00,,---,0.00,VWS V14.01,2013-05-03 02:24:00,
2013-05-02 22:29:00,62.2,45.3,30.09,NE,35,0.0,0.0,54,0.00,,---,0.00,VWS V14.01,2013-05-03 02:29:00,
2013-05-02 22:34:00,61.8,45.5,30.09,West,260,0.0,0.0,55,0.00,,---,0.00,VWS V14.01,2013-05-03 02:34:00,
2013-05-02 22:39:00,61.8,45.0,30.09,West,260,0.0,0.0,54,0.00,,---,0.00,VWS V14.01,2013-05-03 02:39:00,
2013-05-02 22:44:00,61.6,45.8,30.09,West,260,0.0,0.0,56,0.00,,---,0.00,VWS V14.01,2013-05-03 02:44:00,
2013-05-02 22:49:00,61.1,46.2,30.09,NW,305,0.0,0.0,58,0.00,,---,0.00,VWS V14.01,2013-05-03 02:49:00,
2013-05-02 22:54:00,60.9,45.6,30.09,West,260,0.0,0.0,57,0.00,,---,0.00,VWS V14.01,2013-05-03 02:54:00,
2013-05-02 22:59:00,60.7,46.8,30.09,West,260,0.0,0.0,60,0.00,,---,0.00,VWS V14.01,2013-05-03 02:59:00,
2013-05-02 23:04:00,60.4,46.5,30.09,West,260,0.0,0.0,60,0.00,,---,0.00,VWS V14.01,2013-05-03 03:04:00,
2013-05-02 23:09:00,60.2,46.7,30.09,South,170,0.0,0.0,61,0.00,,---,0.00,VWS V14.01,2013-05-03 03:09:00,
2013-05-02 23:14:00,60.0,46.5,30.09,South,170,0.0,0.0,61,0.00,,---,0.00,VWS V14.01,2013-05-03 03:14:00,
2013-05-02 23:19:00,60.0,47.0,30.09,NE,35,0.0,0.0,62,0.00,,---,0.00,VWS V14.01,2013-05-03 03:19:00,
2013-05-02 23:24:00,59.8,46.4,30.09,East,80,0.0,0.0,61,0.00,,---,0.00,VWS V14.01,2013-05-03 03:24:00,
2013-05-02 23:29:00,59.8,46.8,30.09,East,80,0.0,0.0,62,0.00,,---,0.00,VWS V14.01,2013-05-03 03:29:00,
2013-05-02 23:34:00,59.7,46.6,30.09,East,80,0.0,0.0,62,0.00,,---,0.00,VWS V14.01,2013-05-03 03:34:00,
2013-05-02 23:39:00,59.5,46.9,30.09,SE,125,0.0,0.0,63,0.00,,---,0.00,VWS V14.01,2013-05-03 03:39:00,
2013-05-02 23:44:00,59.3,46.7,30.09,NW,305,0.0,0.0,63,0.00,,---,0.00,VWS V14.01,2013-05-03 03:44:00,
2013-05-02 23:49:00,59.3,46.7,30.09,West,260,1.7,1.7,63,0.00,,---,0.00,VWS V14.01,2013-05-03 03:49:00,
2013-05-02 23:54:00,59.1,46.1,30.09,SW,215,0.0,0.0,62,0.00,,---,0.00,VWS V14.01,2013-05-03 03:54:00,
2013-05-02 23:59:00,58.9,46.8,30.09,NE,35,0.0,0.0,64,0.00,,---,0.00,VWS V14.01,2013-05-03 03:59:00,